WMH weather

Ozark Regional Airport
Mountain Home, Arkansas, United States

Public forecast

Using degrees Fahrenheit for public forecast. Weather courtesy of forecast.io.

Current aviation weather report (METAR) for Ozark Regional Airport

Retrieved 2020/06/04 15:53 UTC (54 minutes ago):

KBPK 041553Z AUTO VRB04KT 10SM CLR 19/18 A2987 RMK AO2 SLP108 T01940183

Aviation forecast (TAF) for Ozark Regional Airport

Retrieved 2020/06/04 12:22 UTC (4 hours ago):

TAF KBPK 041120Z 0412/0512 14004KT 6SM -SHRA BR BKN030 OVC060 TEMPO 0412/0416 VRB20G35KT 3SM -TSRA BR BKN020CB FM041600 20009KT P6SM SCT100 BKN250 FM050100 19004KT 6SM -SHRA BR VCTS BKN050CB FM050600 21005KT P6SM BKN250